createdAt,value
2019-03-05T00:03:04.051Z,87.30
2019-03-05T00:08:07.565Z,87.30
2019-03-05T00:13:09.362Z,87.20
2019-03-05T00:18:11.306Z,87.00
2019-03-05T00:23:14.546Z,86.70
2019-03-05T00:28:47.352Z,86.40
2019-03-05T00:34:03.758Z,86.80
2019-03-05T00:39:34.526Z,88.00
2019-03-05T00:45:28.511Z,88.60
2019-03-05T00:50:41.345Z,88.70
2019-03-05T00:56:00.129Z,88.80
2019-03-05T01:01:19.083Z,88.10
2019-03-05T01:06:23.885Z,87.90
2019-03-05T01:11:25.958Z,87.80
2019-03-05T01:16:31.824Z,87.70
2019-03-05T01:21:34.025Z,87.80
2019-03-05T01:26:35.526Z,87.80
2019-03-05T01:31:55.662Z,88.00
2019-03-05T01:37:03.682Z,88.40
2019-03-05T01:42:06.618Z,88.90
2019-03-05T01:47:10.024Z,89.50
2019-03-05T01:52:11.643Z,89.80
2019-03-05T01:57:15.501Z,90.10
2019-03-05T02:02:16.885Z,90.10
2019-03-05T02:07:20.717Z,90.20
2019-03-05T02:12:22.369Z,90.40
2019-03-05T02:17:23.655Z,90.50
2019-03-05T02:22:30.420Z,90.60
2019-03-05T02:28:05.344Z,90.90
2019-03-05T02:33:33.743Z,91.10
2019-03-05T02:38:46.565Z,91.10
2019-03-05T02:43:59.794Z,91.20
2019-03-05T02:49:32.378Z,91.40
2019-03-05T02:54:56.999Z,91.50
2019-03-05T02:59:58.322Z,91.40
2019-03-05T03:05:01.781Z,91.50
2019-03-05T03:10:14.749Z,91.70
2019-03-05T03:15:16.581Z,91.60
2019-03-05T03:20:18.832Z,91.80
2019-03-05T03:25:21.612Z,92.20
2019-03-05T03:30:23.875Z,92.40
2019-03-05T03:35:26.074Z,92.60
2019-03-05T03:40:28.663Z,92.50
2019-03-05T03:45:30.283Z,92.70
2019-03-05T03:50:31.568Z,92.70
2019-03-05T03:55:34.501Z,92.70
2019-03-05T04:00:35.799Z,92.80
2019-03-05T04:05:37.324Z,92.70
2019-03-05T04:10:38.587Z,92.60
2019-03-05T04:15:39.918Z,92.50
2019-03-05T04:20:43.129Z,92.50
2019-03-05T04:25:44.518Z,92.50
2019-03-05T04:30:45.857Z,92.60
2019-03-05T04:35:47.209Z,92.50
2019-03-05T04:40:48.572Z,92.70
2019-03-05T04:46:03.587Z,92.60
2019-03-05T04:51:09.408Z,92.50
2019-03-05T04:56:30.767Z,92.30
2019-03-05T05:01:32.160Z,92.30
2019-03-05T05:06:33.566Z,92.30
2019-03-05T05:11:34.917Z,92.40
2019-03-05T05:16:36.241Z,92.70
2019-03-05T05:21:40.044Z,92.90
2019-03-05T05:26:41.430Z,93.10
2019-03-05T05:31:44.145Z,93.30
2019-03-05T05:36:45.512Z,93.40
2019-03-05T05:41:48.387Z,93.50
2019-03-05T05:46:51.607Z,93.50
2019-03-05T05:51:54.234Z,93.50
2019-03-05T05:56:57.568Z,93.60
2019-03-05T06:01:58.948Z,93.70
2019-03-05T06:07:00.682Z,93.80
2019-03-05T06:12:04.015Z,93.80
2019-03-05T06:17:05.409Z,93.80
2019-03-05T06:22:06.871Z,93.90
2019-03-05T06:27:08.300Z,93.90
2019-03-05T06:32:11.818Z,93.90
2019-03-05T06:37:13.177Z,94.00
2019-03-05T06:42:14.657Z,94.20
2019-03-05T06:47:16.009Z,94.30
2019-03-05T06:52:17.315Z,94.40
2019-03-05T06:57:18.653Z,94.30
2019-03-05T07:02:20.018Z,94.40
2019-03-05T07:07:21.309Z,94.40
2019-03-05T07:12:37.401Z,94.50
2019-03-05T07:18:09.717Z,94.50
2019-03-05T07:23:58.867Z,94.60
2019-03-05T07:29:00.363Z,94.40
2019-03-05T07:34:02.547Z,94.40
2019-03-05T07:39:09.306Z,94.50
2019-03-05T07:44:11.811Z,94.40
2019-03-05T07:49:13.139Z,94.40
2019-03-05T07:54:14.691Z,94.40
2019-03-05T07:59:16.105Z,94.40
2019-03-05T08:04:17.868Z,94.40
2019-03-05T08:09:32.119Z,94.30
2019-03-05T08:14:53.878Z,94.30
2019-03-05T08:19:55.293Z,94.20
2019-03-05T08:24:56.922Z,94.10
2019-03-05T08:29:58.555Z,94.00
2019-03-05T08:35:00.438Z,94.00
2019-03-05T08:40:05.717Z,93.90
2019-03-05T08:45:12.060Z,93.90
2019-03-05T08:50:14.727Z,93.70
2019-03-05T08:55:16.155Z,93.50
2019-03-05T09:00:19.801Z,93.60
2019-03-05T09:05:22.502Z,93.40
2019-03-05T09:10:26.180Z,93.50
2019-03-05T09:15:27.926Z,93.40
2019-03-05T09:20:29.861Z,93.30
2019-03-05T09:25:34.615Z,93.20
2019-03-05T09:30:36.190Z,92.90
2019-03-05T09:35:37.664Z,92.80
2019-03-05T09:40:39.202Z,92.70
2019-03-05T09:45:40.654Z,92.50
2019-03-05T09:50:42.164Z,92.50
2019-03-05T09:55:45.247Z,92.30
2019-03-05T10:00:46.646Z,92.10
2019-03-05T10:05:48.331Z,92.00
2019-03-05T10:10:49.942Z,91.90
2019-03-05T10:15:53.380Z,91.80
2019-03-05T10:20:54.717Z,91.70
2019-03-05T10:25:56.350Z,91.00
2019-03-05T10:30:57.752Z,90.80
2019-03-05T10:35:59.143Z,90.30
2019-03-05T10:41:00.750Z,89.80
2019-03-05T10:46:03.682Z,90.10
2019-03-05T10:51:06.020Z,90.10
2019-03-05T10:56:08.027Z,89.60
2019-03-05T11:01:11.375Z,89.10
2019-03-05T11:06:13.154Z,87.40
2019-03-05T11:11:14.458Z,86.50
2019-03-05T11:16:16.269Z,85.70
2019-03-05T11:21:18.227Z,86.00
2019-03-05T11:26:19.950Z,85.00
2019-03-05T11:31:22.767Z,83.80
2019-03-05T11:36:24.336Z,83.70
2019-03-05T11:41:44.107Z,82.20
2019-03-05T11:46:45.510Z,81.80
2019-03-05T11:51:47.130Z,81.60
2019-03-05T11:56:48.522Z,81.80
2019-03-05T12:01:49.883Z,82.30
2019-03-05T12:06:51.180Z,83.10
2019-03-05T12:11:52.972Z,83.40
2019-03-05T12:16:54.329Z,81.30
2019-03-05T12:21:56.374Z,78.80
2019-03-05T12:26:59.359Z,77.30
2019-03-05T12:32:00.739Z,77.40
2019-03-05T12:37:03.409Z,76.80
2019-03-05T12:42:05.067Z,75.50
2019-03-05T12:47:08.338Z,74.90
2019-03-05T12:52:09.997Z,74.80
2019-03-05T12:57:11.848Z,74.40
2019-03-05T13:02:16.387Z,74.00
2019-03-05T13:07:19.039Z,73.90
2019-03-05T13:12:20.559Z,73.50
2019-03-05T13:17:21.962Z,73.40
2019-03-05T13:22:24.860Z,73.30
2019-03-05T13:27:28.058Z,73.90
2019-03-05T13:32:29.579Z,72.90
2019-03-05T13:37:30.898Z,72.00
2019-03-05T13:42:35.168Z,71.90
2019-03-05T13:47:43.676Z,71.00
2019-03-05T13:53:23.808Z,70.80
2019-03-05T13:58:53.764Z,71.10
2019-03-05T14:04:02.036Z,69.00
2019-03-05T14:09:13.410Z,68.10
2019-03-05T14:14:21.511Z,67.60
2019-03-05T14:19:23.580Z,66.10
2019-03-05T14:24:26.794Z,64.10
2019-03-05T14:29:29.443Z,63.40
2019-03-05T14:34:31.078Z,64.00
2019-03-05T14:39:33.911Z,64.20
2019-03-05T14:44:40.146Z,64.40
2019-03-05T14:49:42.076Z,65.20
2019-03-05T14:54:43.750Z,66.10
2019-03-05T14:59:47.376Z,66.00
2019-03-05T15:04:48.980Z,66.10
2019-03-05T15:09:50.582Z,65.90
2019-03-05T15:14:51.966Z,65.40
2019-03-05T15:19:53.462Z,65.60
2019-03-05T15:24:54.850Z,66.10
2019-03-05T15:29:56.166Z,66.30
2019-03-05T15:34:57.535Z,66.60
2019-03-05T15:39:58.914Z,67.10
2019-03-05T15:45:00.517Z,67.20
2019-03-05T15:50:03.954Z,67.20
2019-03-05T15:55:09.739Z,67.50
2019-03-05T16:00:31.691Z,67.10
2019-03-05T16:05:33.183Z,66.80
2019-03-05T16:10:36.430Z,67.30
2019-03-05T16:15:37.775Z,67.10
2019-03-05T16:20:39.559Z,67.50
2019-03-05T16:25:41.463Z,67.90
2019-03-05T16:30:47.844Z,68.50
2019-03-05T16:36:00.291Z,69.30
2019-03-05T16:41:03.668Z,70.00
2019-03-05T16:46:10.183Z,70.50
2019-03-05T16:51:13.521Z,70.90
2019-03-05T16:56:35.580Z,71.40
2019-03-05T17:07:21.255Z,73.30
2019-03-05T17:12:22.719Z,73.00
2019-03-05T17:17:24.383Z,73.60
2019-03-05T17:22:25.992Z,74.10
2019-03-05T17:27:27.361Z,74.50
2019-03-05T17:32:29.116Z,75.10
2019-03-05T17:37:30.539Z,75.80
2019-03-05T17:42:32.420Z,76.20
2019-03-05T17:47:33.751Z,76.90
2019-03-05T17:52:35.306Z,77.60
2019-03-05T17:57:36.587Z,78.10
2019-03-05T18:02:38.248Z,78.20
2019-03-05T18:07:39.726Z,78.50
2019-03-05T18:12:41.383Z,78.90
2019-03-05T18:23:03.211Z,79.30
2019-03-05T18:28:04.784Z,79.60
2019-03-05T18:33:06.291Z,80.30
2019-03-05T18:38:07.919Z,80.60
2019-03-05T18:43:09.451Z,80.90
2019-03-05T18:48:10.942Z,81.30
2019-03-05T18:53:12.555Z,81.90
2019-03-05T18:58:14.422Z,82.30
2019-03-05T19:03:18.468Z,83.00
2019-03-05T19:08:21.456Z,83.20
2019-03-05T19:13:23.891Z,83.80
2019-03-05T19:18:25.404Z,83.90
2019-03-05T19:23:26.949Z,84.30
2019-03-05T19:28:28.557Z,84.30
2019-03-05T19:33:29.943Z,84.80
2019-03-05T19:38:31.268Z,85.10
2019-03-05T19:43:32.691Z,85.40
2019-03-05T19:48:33.964Z,85.80
2019-03-05T19:53:35.418Z,85.80
2019-03-05T19:58:36.817Z,86.00
2019-03-05T20:03:39.334Z,86.40
2019-03-05T20:08:40.955Z,86.50
2019-03-05T20:13:42.945Z,86.80
2019-03-05T20:18:44.486Z,86.70
2019-03-05T20:23:45.814Z,87.00
2019-03-05T20:28:47.130Z,87.40
2019-03-05T20:33:50.071Z,87.80
2019-03-05T20:38:51.401Z,87.80
2019-03-05T20:43:52.778Z,87.90
2019-03-05T20:48:54.104Z,88.00
2019-03-05T20:53:57.561Z,88.30
2019-03-05T20:58:58.994Z,88.40
2019-03-05T21:04:00.695Z,88.50
2019-03-05T21:09:06.255Z,88.80
2019-03-05T21:14:09.601Z,89.20
2019-03-05T21:19:12.811Z,89.20
2019-03-05T21:24:14.101Z,89.30
2019-03-05T21:29:15.528Z,90.00
2019-03-05T21:34:16.913Z,89.30
2019-03-05T21:39:18.448Z,89.20
2019-03-05T21:44:19.733Z,89.40
2019-03-05T21:49:21.068Z,89.40
2019-03-05T21:54:22.508Z,89.50
2019-03-05T21:59:24.031Z,89.60
2019-03-05T22:04:25.674Z,89.60
2019-03-05T22:09:29.203Z,89.60
2019-03-05T22:14:30.669Z,89.70
2019-03-05T22:19:31.975Z,89.60
2019-03-05T22:24:33.298Z,89.70
2019-03-05T22:29:34.619Z,89.70
2019-03-05T22:34:36.258Z,89.70
2019-03-05T22:39:37.798Z,90.00
2019-03-05T22:44:39.057Z,90.00
2019-03-05T22:49:40.617Z,90.00
2019-03-05T22:54:42.219Z,90.20
2019-03-05T22:59:43.702Z,90.20
2019-03-05T23:04:45.318Z,90.40
2019-03-05T23:09:48.458Z,90.60
2019-03-05T23:14:52.204Z,90.90
2019-03-05T23:19:53.764Z,91.20
2019-03-05T23:24:55.240Z,91.40
2019-03-05T23:29:56.828Z,91.60
2019-03-05T23:34:58.426Z,91.80
2019-03-05T23:40:00.301Z,92.00
2019-03-05T23:45:03.508Z,92.10
2019-03-05T23:50:08.694Z,92.30
2019-03-05T23:55:12.998Z,92.40
